Time;durP1;ratioP1;P1;durP2;ratioP2;P2;SDS_P1;SDS_P2;PMS_P1;PMS_P2;Temp;Humidity;BMP_temperature;BMP_pressure;BME280_temperature;BME280_humidity;BME280_pressure;Samples;Min_cycle;Max_cycle;Signal;HPM_P1;HPM_P2
2024/02/27 00:00:10;;;;;;;1999.90;999.90;;;;;;;4.55;100.00;101455.22;10217922;29;20261;-66
2024/02/27 00:05:13;;;;;;;1999.90;999.90;;;;;;;4.50;100.00;101461.41;10217061;29;20492;-66
2024/02/27 00:10:15;;;;;;;1999.90;999.90;;;;;;;4.54;100.00;101463.03;10216322;29;20162;-66
2024/02/27 00:15:17;;;;;;;1999.90;999.90;;;;;;;4.57;100.00;101460.38;10215786;29;20131;-66
2024/02/27 00:20:20;;;;;;;1999.90;999.90;;;;;;;4.23;100.00;101454.16;10216548;29;20052;-66
2024/02/27 00:25:22;;;;;;;1999.90;999.90;;;;;;;4.45;100.00;101464.09;10215913;29;20505;-67
2024/02/27 00:30:25;;;;;;;1999.90;999.90;;;;;;;4.77;100.00;101457.34;10215662;29;20487;-66
2024/02/27 00:35:27;;;;;;;1999.90;999.90;;;;;;;4.44;100.00;101459.81;10216050;29;20082;-66
2024/02/27 00:40:30;;;;;;;1999.90;999.90;;;;;;;4.60;100.00;101458.56;10215512;29;20081;-66
2024/02/27 00:45:33;;;;;;;1999.90;999.90;;;;;;;4.34;100.00;101460.84;10215769;29;20051;-66
2024/02/27 00:50:35;;;;;;;1999.90;999.90;;;;;;;4.24;100.00;101461.06;10215635;29;20060;-66
2024/02/27 00:55:37;;;;;;;1999.90;999.90;;;;;;;4.18;100.00;101471.53;10213574;29;20399;-66
2024/02/27 01:00:40;;;;;;;1999.90;999.90;;;;;;;4.20;100.00;101481.88;10215791;29;20052;-66
2024/02/27 01:05:42;;;;;;;1999.90;999.90;;;;;;;4.03;100.00;101471.84;10215136;29;20047;-66
2024/02/27 01:10:45;;;;;;;1999.90;999.90;;;;;;;3.95;100.00;101479.78;10215054;29;20062;-66
2024/02/27 01:15:47;;;;;;;1999.90;999.90;;;;;;;4.23;100.00;101477.50;10213064;29;20091;-66
2024/02/27 01:20:49;;;;;;;1999.90;999.90;;;;;;;4.07;100.00;101481.28;10215278;29;20047;-66
2024/02/27 01:25:52;;;;;;;1999.90;999.90;;;;;;;3.96;100.00;101497.03;10213625;29;20065;-66
2024/02/27 01:30:54;;;;;;;1999.90;999.90;;;;;;;3.89;100.00;101492.84;10222265;29;20140;-66
2024/02/27 01:35:56;;;;;;;1999.90;999.90;;;;;;;3.90;100.00;101487.63;10222709;29;20054;-66
2024/02/27 01:40:59;;;;;;;1999.90;999.90;;;;;;;3.93;100.00;101496.22;10221885;29;20066;-66
2024/02/27 01:46:14;;;;;;;1999.90;999.90;;;;;;;3.96;100.00;101494.44;10221281;29;20048;-66
2024/02/27 01:51:17;;;;;;;1999.90;999.90;;;;;;;3.99;100.00;101494.38;10221041;29;20079;-66
2024/02/27 01:56:20;;;;;;;1999.90;999.90;;;;;;;4.17;100.00;101493.19;10220203;29;20051;-66
2024/02/27 02:01:23;;;;;;;1999.90;999.90;;;;;;;4.07;100.00;101495.09;10221142;29;20132;-66
2024/02/27 02:06:25;;;;;;;1999.90;999.90;;;;;;;4.14;100.00;101502.75;10220665;29;20051;-66
2024/02/27 02:11:28;;;;;;;1999.90;999.90;;;;;;;4.05;100.00;101509.81;10220180;29;20052;-66
2024/02/27 02:16:30;;;;;;;1999.90;999.90;;;;;;;3.89;100.00;101510.97;10220147;29;20148;-67
2024/02/27 02:21:33;;;;;;;1999.90;999.90;;;;;;;4.02;100.00;101524.56;10220494;29;20415;-66
2024/02/27 02:26:36;;;;;;;1999.90;999.90;;;;;;;4.17;100.00;101526.88;10219783;29;20055;-66
2024/02/27 02:31:38;;;;;;;1999.90;999.90;;;;;;;3.99;100.00;101535.84;10219484;29;20052;-66
2024/02/27 02:36:42;;;;;;;1999.90;999.90;;;;;;;4.15;100.00;101536.38;10218755;29;20511;-67
2024/02/27 02:41:44;;;;;;;1999.90;999.90;;;;;;;3.96;100.00;101548.84;10218957;29;20054;-66
2024/02/27 02:46:47;;;;;;;1999.90;999.90;;;;;;;4.14;100.00;101546.81;10220149;29;20048;-66
2024/02/27 02:51:49;;;;;;;1999.90;999.90;;;;;;;3.81;100.00;101549.13;10219259;29;20591;-66
2024/02/27 02:56:51;;;;;;;1999.90;999.90;;;;;;;3.76;100.00;101556.97;10219774;29;20117;-66
2024/02/27 03:01:55;;;;;;;1999.90;999.90;;;;;;;4.00;100.00;101555.69;10218941;29;20044;-66
2024/02/27 03:06:58;;;;;;;1999.90;999.90;;;;;;;3.76;100.00;101559.53;10218790;29;20499;-66
2024/02/27 03:12:01;;;;;;;1999.90;999.90;;;;;;;3.64;100.00;101570.13;10219174;29;20054;-66
2024/02/27 03:17:03;;;;;;;1999.90;999.90;;;;;;;3.57;100.00;101566.78;10218184;29;20062;-66
2024/02/27 03:22:06;;;;;;;1999.90;999.90;;;;;;;3.47;100.00;101554.84;10218198;29;20403;-66
2024/02/27 03:27:08;;;;;;;1999.90;999.90;;;;;;;3.49;100.00;101551.34;10218034;29;20052;-66
2024/02/27 03:32:10;;;;;;;1999.90;999.90;;;;;;;3.64;100.00;101552.00;10217851;29;20404;-66
2024/02/27 03:37:14;;;;;;;1999.90;999.90;;;;;;;3.57;100.00;101558.16;10218244;29;20083;-66
2024/02/27 03:42:16;;;;;;;1999.90;999.90;;;;;;;3.38;100.00;101567.94;10217792;29;20060;-66
2024/02/27 03:47:19;;;;;;;1999.90;999.90;;;;;;;3.45;100.00;101570.41;10217866;29;20110;-66
2024/02/27 03:52:21;;;;;;;1999.90;999.90;;;;;;;3.20;100.00;101569.06;10216802;29;20050;-66
2024/02/27 03:57:23;;;;;;;1999.90;999.90;;;;;;;3.12;100.00;101566.56;10217416;29;20130;-66
2024/02/27 04:02:26;;;;;;;1999.90;999.90;;;;;;;3.12;100.00;101561.41;10216116;29;20103;-66
2024/02/27 04:07:28;;;;;;;1999.90;999.90;;;;;;;2.97;100.00;101571.06;10215985;29;20058;-66
2024/02/27 04:12:31;;;;;;;1999.90;999.90;;;;;;;3.04;100.00;101579.59;10216864;29;20078;-66
2024/02/27 04:17:33;;;;;;;1999.90;999.90;;;;;;;3.06;100.00;101580.47;10216694;29;20193;-66
2024/02/27 04:22:35;;;;;;;1999.90;999.90;;;;;;;2.98;100.00;101584.88;10217026;29;20060;-66
2024/02/27 04:27:39;;;;;;;1999.90;999.90;;;;;;;3.09;100.00;101587.31;10216317;29;20056;-66
2024/02/27 04:32:41;;;;;;;1999.90;999.90;;;;;;;3.23;100.00;101594.88;10215044;29;20051;-66
2024/02/27 04:37:44;;;;;;;1999.90;999.90;;;;;;;2.84;100.00;101597.13;10198926;29;20087;-66
2024/02/27 04:42:46;;;;;;;1999.90;999.90;;;;;;;3.17;100.00;101601.84;10215323;29;20514;-66
2024/02/27 04:47:48;;;;;;;1999.90;999.90;;;;;;;3.14;100.00;101601.03;10215684;29;20055;-66
2024/02/27 04:52:52;;;;;;;1999.90;999.90;;;;;;;3.06;100.00;101608.94;10214289;29;20056;-66
2024/02/27 04:57:54;;;;;;;1999.90;999.90;;;;;;;3.06;100.00;101611.53;10215364;29;20094;-66
2024/02/27 05:02:57;;;;;;;1999.90;999.90;;;;;;;2.92;100.00;101609.09;10212895;29;20407;-66
2024/02/27 05:07:59;;;;;;;1999.90;999.90;;;;;;;3.11;100.00;101622.66;10213327;29;20555;-66
2024/02/27 05:13:02;;;;;;;1999.90;999.90;;;;;;;3.15;100.00;101629.50;10213138;29;20403;-66
2024/02/27 05:18:04;;;;;;;1999.90;999.90;;;;;;;3.15;100.00;101631.22;10214252;29;20455;-66
2024/02/27 05:23:07;;;;;;;1999.90;999.90;;;;;;;3.02;100.00;101634.84;10213537;29;20054;-66
2024/02/27 05:28:11;;;;;;;1999.90;999.90;;;;;;;3.06;100.00;101650.31;10214079;29;20051;-66
2024/02/27 05:33:13;;;;;;;1999.90;999.90;;;;;;;3.32;100.00;101651.72;10213363;29;20060;-66
2024/02/27 05:38:16;;;;;;;1999.90;999.90;;;;;;;2.98;100.00;101646.97;10214339;29;20119;-66
2024/02/27 05:43:18;;;;;;;1999.90;999.90;;;;;;;2.93;100.00;101657.38;10212626;29;20503;-66
2024/02/27 05:48:21;;;;;;;1999.90;999.90;;;;;;;3.20;100.00;101662.25;10213691;29;20056;-66
2024/02/27 05:53:24;;;;;;;1999.90;999.90;;;;;;;2.93;100.00;101657.38;10213001;29;20102;-66
2024/02/27 05:58:27;;;;;;;1999.90;999.90;;;;;;;3.15;100.00;101665.72;10214222;29;20135;-66
2024/02/27 06:03:30;;;;;;;1999.90;999.90;;;;;;;2.97;100.00;101682.31;10214100;29;20127;-66
2024/02/27 06:08:32;;;;;;;1999.90;999.90;;;;;;;2.88;100.00;101687.59;10212856;29;20051;-66
2024/02/27 06:13:34;;;;;;;1999.90;999.90;;;;;;;2.89;100.00;101701.38;10216771;29;20057;-66
2024/02/27 06:18:38;;;;;;;1999.90;999.90;;;;;;;3.10;100.00;101698.56;10221238;29;20058;-66
2024/02/27 06:23:42;;;;;;;1999.90;999.90;;;;;;;3.04;100.00;101708.13;10221571;29;20127;-66
2024/02/27 06:28:45;;;;;;;1999.90;999.90;;;;;;;2.98;100.00;101715.09;10220556;29;20087;-66
2024/02/27 06:33:47;;;;;;;1999.90;999.90;;;;;;;2.73;100.00;101717.06;10220590;29;20044;-66
2024/02/27 06:38:50;;;;;;;1999.90;999.90;;;;;;;2.83;100.00;101724.75;10220258;29;20063;-66
2024/02/27 06:43:52;;;;;;;1999.90;999.90;;;;;;;2.95;100.00;101719.44;10218646;29;20070;-66
2024/02/27 06:48:55;;;;;;;1999.90;999.90;;;;;;;2.89;100.00;101719.50;10220100;29;20051;-66
2024/02/27 06:54:12;;;;;;;1999.90;999.90;;;;;;;2.52;100.00;101723.31;10219829;29;20058;-66
2024/02/27 06:59:15;;;;;;;1999.90;999.90;;;;;;;2.85;100.00;101710.06;10219855;29;20055;-66
2024/02/27 07:04:18;;;;;;;1999.90;999.90;;;;;;;2.95;100.00;101704.75;10218352;29;20051;-66
2024/02/27 07:09:20;;;;;;;1999.90;999.90;;;;;;;3.17;100.00;101707.97;10218156;29;20412;-66
2024/02/27 07:14:23;;;;;;;1999.90;999.90;;;;;;;3.22;100.00;101727.75;10219057;29;20055;-66
2024/02/27 07:19:25;;;;;;;1999.90;999.90;;;;;;;3.26;100.00;101726.84;10219004;29;20051;-66
2024/02/27 07:24:28;;;;;;;1999.90;999.90;;;;;;;3.14;100.00;101717.50;10216952;29;20079;-66
2024/02/27 07:29:31;;;;;;;1999.90;999.90;;;;;;;3.33;100.00;101716.41;10218665;29;20059;-66
2024/02/27 07:34:33;;;;;;;1999.90;999.90;;;;;;;3.38;100.00;101736.19;10218351;29;20051;-66
2024/02/27 07:39:37;;;;;;;1999.90;999.90;;;;;;;3.18;100.00;101729.53;10218000;29;20061;-66
2024/02/27 07:44:39;;;;;;;1999.90;999.90;;;;;;;3.30;100.00;101742.31;10218022;29;20051;-66
2024/02/27 07:49:45;;;;;;;1999.90;999.90;;;;;;;3.58;100.00;101748.88;10216064;29;20554;-66
2024/02/27 07:54:48;;;;;;;1999.90;999.90;;;;;;;3.37;100.00;101750.88;10217042;29;20407;-66
2024/02/27 07:59:50;;;;;;;1999.90;999.90;;;;;;;3.53;100.00;101760.16;10216827;29;20052;-66
2024/02/27 08:04:53;;;;;;;1999.90;999.90;;;;;;;3.59;100.00;101773.91;10216164;29;20052;-66
2024/02/27 08:09:55;;;;;;;1999.90;999.90;;;;;;;3.73;100.00;101769.41;10216266;29;20051;-66
2024/02/27 08:14:58;;;;;;;1999.90;999.90;;;;;;;3.69;100.00;101776.34;10217768;29;20051;-66
2024/02/27 08:20:00;;;;;;;1999.90;999.90;;;;;;;4.07;100.00;101769.78;10216127;29;20079;-67
2024/02/27 08:25:03;;;;;;;1999.90;999.90;;;;;;;4.08;100.00;101770.66;10214764;29;20051;-67
2024/02/27 08:30:06;;;;;;;1999.90;999.90;;;;;;;3.91;100.00;101778.66;10216377;29;20070;-67
2024/02/27 08:35:12;;;;;;;1999.90;999.90;;;;;;;4.06;100.00;101799.16;10216400;29;20131;-67
2024/02/27 08:40:16;;;;;;;1999.90;999.90;;;;;;;3.96;100.00;101801.94;10214918;29;20495;-68
2024/02/27 08:45:19;;;;;;;1999.90;999.90;;;;;;;4.09;100.00;101813.84;10216333;29;20086;-67
2024/02/27 08:50:22;;;;;;;1999.90;999.90;;;;;;;3.89;100.00;101827.06;10214973;29;20054;-67
2024/02/27 08:55:27;;;;;;;1999.90;999.90;;;;;;;4.05;100.00;101820.81;10222570;23;20063;-66
2024/02/27 09:00:29;;;;;;;1999.90;999.90;;;;;;;4.15;100.00;101818.91;10214644;29;20403;-65
2024/02/27 09:05:31;;;;;;;1999.90;999.90;;;;;;;4.07;100.00;101831.16;10215248;29;20047;-66
2024/02/27 09:10:34;;;;;;;1999.90;999.90;;;;;;;4.43;100.00;101841.84;10215177;29;20058;-66
2024/02/27 09:15:36;;;;;;;1999.90;999.90;;;;;;;4.19;100.00;101846.53;10213816;29;20055;-66
2024/02/27 09:20:41;;;;;;;1999.90;999.90;;;;;;;4.58;100.00;101849.41;10213746;29;20052;-66
2024/02/27 09:25:43;;;;;;;1999.90;999.90;;;;;;;4.24;100.00;101844.72;10214188;29;20506;-66
2024/02/27 09:30:46;;;;;;;1999.90;999.90;;;;;;;4.58;100.00;101851.16;10214080;29;20047;-66
2024/02/27 09:35:49;;;;;;;1999.90;999.90;;;;;;;4.44;100.00;101847.03;10214520;29;20048;-66
2024/02/27 09:40:54;;;;;;;1999.90;999.90;;;;;;;4.52;100.00;101840.84;10214525;29;20081;-66
2024/02/27 09:46:01;;;;;;;1999.90;999.90;;;;;;;4.67;100.00;101850.13;10213921;29;20537;-66
2024/02/27 09:51:04;;;;;;;1999.90;999.90;;;;;;;4.57;100.00;101844.22;10219363;29;20106;-66
2024/02/27 09:56:11;;;;;;;1999.90;999.90;;;;;;;4.36;100.00;101855.81;10220732;29;20115;-66
2024/02/27 10:01:13;;;;;;;1999.90;999.90;;;;;;;4.48;100.00;101858.19;10220301;29;20530;-66
2024/02/27 10:06:17;;;;;;;1999.90;999.90;;;;;;;4.38;100.00;101848.84;10220005;29;20079;-66
2024/02/27 10:11:24;;;;;;;1999.90;999.90;;;;;;;4.59;100.00;101851.13;10221620;29;20047;-66
2024/02/27 10:16:26;;;;;;;1999.90;999.90;;;;;;;4.79;100.00;101837.84;10220230;29;20107;-66
2024/02/27 10:21:29;;;;;;;1999.90;999.90;;;;;;;5.14;100.00;101840.69;10220091;29;20052;-66
2024/02/27 10:26:31;;;;;;;1999.90;999.90;;;;;;;5.07;100.00;101833.91;10219936;29;20052;-66
2024/02/27 10:31:38;;;;;;;1999.90;999.90;;;;;;;4.80;100.00;101841.28;10219749;29;20130;-66
2024/02/27 10:36:40;;;;;;;1999.90;999.90;;;;;;;4.75;100.00;101849.13;10220697;29;20055;-66
2024/02/27 10:41:43;;;;;;;1999.90;999.90;;;;;;;5.25;100.00;101845.69;10220471;29;20079;-66
2024/02/27 10:46:46;;;;;;;1999.90;999.90;;;;;;;5.48;100.00;101843.53;10220355;29;20064;-66
2024/02/27 10:51:49;;;;;;;1999.90;999.90;;;;;;;5.17;100.00;101851.88;10218998;29;20056;-66
2024/02/27 10:56:53;;;;;;;1999.90;999.90;;;;;;;5.51;100.00;101864.22;10217995;29;20055;-67
2024/02/27 11:01:58;;;;;;;1999.90;999.90;;;;;;;5.34;100.00;101861.94;10219391;29;20079;-67
2024/02/27 11:07:01;;;;;;;1999.90;999.90;;;;;;;5.33;100.00;101864.56;10219616;29;20071;-67
2024/02/27 11:12:04;;;;;;;1999.90;999.90;;;;;;;5.50;100.00;101853.88;10219452;29;20060;-67
2024/02/27 11:17:21;;;;;;;1999.90;999.90;;;;;;;5.45;100.00;101864.34;10217839;29;20056;-66
2024/02/27 11:22:24;;;;;;;1999.90;999.90;;;;;;;5.70;100.00;101858.66;10217836;29;20062;-66
2024/02/27 11:27:26;;;;;;;1999.90;999.90;;;;;;;5.61;100.00;101848.47;10217059;29;20058;-67
2024/02/27 11:32:32;;;;;;;1999.90;999.90;;;;;;;5.47;100.00;101860.00;10216750;29;20051;-67
2024/02/27 11:37:38;;;;;;;1999.90;999.90;;;;;;;5.68;100.00;101844.84;10218397;29;20047;-70
2024/02/27 11:42:42;;;;;;;1999.90;999.90;;;;;;;5.94;100.00;101839.97;10216965;29;20051;-70
2024/02/27 11:47:48;;;;;;;1999.90;999.90;;;;;;;5.66;100.00;101831.03;10216248;29;20492;-70
2024/02/27 11:52:51;;;;;;;1999.90;999.90;;;;;;;5.86;100.00;101834.09;10217265;29;20060;-69
2024/02/27 11:57:54;;;;;;;1999.90;999.90;;;;;;;5.90;100.00;101833.16;10217591;29;20131;-69
2024/02/27 12:02:56;;;;;;;1999.90;999.90;;;;;;;5.99;100.00;101826.91;10216283;29;20135;-69
2024/02/27 12:07:59;;;;;;;1999.90;999.90;;;;;;;5.74;100.00;101817.00;10217691;29;20051;-69
2024/02/27 12:13:06;;;;;;;1999.90;999.90;;;;;;;6.18;100.00;101809.16;10215779;29;20043;-69
2024/02/27 12:18:08;;;;;;;1999.90;999.90;;;;;;;6.32;100.00;101801.03;10216201;29;20483;-69
2024/02/27 12:23:14;;;;;;;1999.90;999.90;;;;;;;5.96;100.00;101798.38;10216145;29;20095;-69
2024/02/27 12:28:17;;;;;;;1999.90;999.90;;;;;;;6.38;100.00;101787.03;10216369;29;20130;-69
2024/02/27 12:33:21;;;;;;;1999.90;999.90;;;;;;;6.38;100.00;101777.47;10215045;29;20099;-69
2024/02/27 12:38:23;;;;;;;1999.90;999.90;;;;;;;6.60;100.00;101771.75;10216132;29;20047;-69
2024/02/27 12:43:26;;;;;;;1999.90;999.90;;;;;;;6.13;100.00;101765.06;10215350;29;20506;-69
2024/02/27 12:48:28;;;;;;;1999.90;999.90;;;;;;;6.16;100.00;101765.88;10214830;29;20089;-69
2024/02/27 12:53:32;;;;;;;1999.90;999.90;;;;;;;6.62;100.00;101755.22;10214232;29;20056;-69
2024/02/27 12:58:34;;;;;;;1999.90;999.90;;;;;;;6.56;100.00;101762.31;10214484;29;20403;-69
2024/02/27 13:03:37;;;;;;;1999.90;999.90;;;;;;;6.82;100.00;101764.25;10215465;29;20055;-69
2024/02/27 13:08:40;;;;;;;1999.90;999.90;;;;;;;6.43;100.00;101773.03;10214688;29;20055;-69
2024/02/27 13:13:43;;;;;;;1999.90;999.90;;;;;;;6.29;100.00;101770.75;10213815;29;20130;-69
2024/02/27 13:18:45;;;;;;;1999.90;999.90;;;;;;;6.31;100.00;101770.72;10214985;29;20051;-69
2024/02/27 13:23:51;;;;;;;1999.90;999.90;;;;;;;6.43;100.00;101774.78;10212569;29;20051;-70
2024/02/27 13:28:53;;;;;;;1999.90;999.90;;;;;;;6.60;100.00;101761.34;10214222;29;20056;-70
2024/02/27 13:33:56;;;;;;;1999.90;999.90;;;;;;;6.27;98.78;101762.16;10213979;29;20051;-70
2024/02/27 13:38:58;;;;;;;1999.90;999.90;;;;;;;6.84;96.10;101744.22;10214551;29;20048;-71
2024/02/27 13:44:01;;;;;;;1999.90;999.90;;;;;;;6.30;95.30;101745.59;10214604;29;20132;-70
2024/02/27 13:49:03;;;;;;;1999.90;999.90;;;;;;;7.81;96.50;101739.69;10214397;29;20062;-70
2024/02/27 13:54:06;;;;;;;1999.90;999.90;;;;;;;7.21;93.42;101738.88;10213602;29;20059;-70
2024/02/27 13:59:08;;;;;;;1999.90;999.90;;;;;;;6.99;93.69;101733.44;10214271;29;20070;-70
2024/02/27 14:04:11;;;;;;;1999.90;999.90;;;;;;;6.66;97.01;101737.78;10213391;29;20510;-70
2024/02/27 14:09:13;;;;;;;1999.90;999.90;;;;;;;11.26;85.00;101732.84;10212167;29;20411;-70
2024/02/27 14:14:17;;;;;;;1999.90;999.90;;;;;;;14.01;67.22;101730.34;10212727;29;20138;-70
2024/02/27 14:19:23;;;;;;;1999.90;999.90;;;;;;;12.86;67.06;101730.41;10213853;29;20058;-70
2024/02/27 14:24:25;;;;;;;1999.90;999.90;;;;;;;15.36;60.90;101718.78;10213390;29;20132;-70
2024/02/27 14:29:28;;;;;;;1999.90;999.90;;;;;;;14.33;67.40;101720.56;10214183;29;20063;-70
2024/02/27 14:34:31;;;;;;;1999.90;999.90;;;;;;;14.83;59.98;101711.47;10213897;29;20475;-70
2024/02/27 14:39:33;;;;;;;1999.90;999.90;;;;;;;13.70;66.18;101725.03;10220661;29;20048;-70
2024/02/27 14:44:36;;;;;;;1999.90;999.90;;;;;;;11.59;69.07;101727.84;10219889;29;20044;-70
2024/02/27 14:49:38;;;;;;;1999.90;999.90;;;;;;;12.21;66.43;101735.44;10219623;29;20078;-70
2024/02/27 14:54:45;;;;;;;1999.90;999.90;;;;;;;11.55;68.99;101734.16;10219814;29;20051;-70
2024/02/27 14:59:47;;;;;;;1999.90;999.90;;;;;;;13.79;63.74;101733.34;10219242;29;20455;-70
2024/02/27 15:04:49;;;;;;;1999.90;999.90;;;;;;;17.94;55.18;101720.72;10219030;29;20415;-70
2024/02/27 15:09:52;;;;;;;1999.90;999.90;;;;;;;16.12;53.88;101730.66;10218904;29;20415;-70
2024/02/27 15:14:54;;;;;;;1999.90;999.90;;;;;;;13.99;63.38;101740.94;10202328;29;20047;-70
2024/02/27 15:19:57;;;;;;;1999.90;999.90;;;;;;;11.86;65.10;101743.19;10217394;29;20563;-70
2024/02/27 15:25:00;;;;;;;1999.90;999.90;;;;;;;11.73;67.47;101740.28;10219443;29;20127;-70
2024/02/27 15:30:03;;;;;;;1999.90;999.90;;;;;;;11.89;68.54;101738.66;10218781;29;20181;-70
2024/02/27 15:35:05;;;;;;;1999.90;999.90;;;;;;;9.63;70.76;101743.97;10216714;29;20054;-70
2024/02/27 15:40:08;;;;;;;1999.90;999.90;;;;;;;10.83;69.12;101735.63;10218353;29;20055;-70
2024/02/27 15:45:11;;;;;;;1999.90;999.90;;;;;;;13.62;62.25;101726.38;10217738;29;20047;-70
2024/02/27 15:50:13;;;;;;;1999.90;999.90;;;;;;;11.82;65.52;101728.53;10217962;29;20055;-70
2024/02/27 15:55:17;;;;;;;1999.90;999.90;;;;;;;11.31;64.97;101723.00;10217367;29;20083;-70
2024/02/27 16:00:19;;;;;;;1999.90;999.90;;;;;;;8.34;73.73;101723.25;10217546;29;20055;-70
2024/02/27 16:05:29;;;;;;;1999.90;999.90;;;;;;;8.50;78.01;101722.75;10216212;29;20043;-70
2024/02/27 16:10:32;;;;;;;1999.90;999.90;;;;;;;7.77;79.46;101724.22;10215515;29;20515;-71
2024/02/27 16:15:34;;;;;;;1999.90;999.90;;;;;;;7.51;80.46;101727.59;10216209;29;20399;-71
2024/02/27 16:20:36;;;;;;;1999.90;999.90;;;;;;;7.20;81.70;101724.13;10216605;29;20078;-70
2024/02/27 16:25:39;;;;;;;1999.90;999.90;;;;;;;6.98;82.24;101730.84;10215494;29;20076;-70
2024/02/27 16:30:41;;;;;;;1999.90;999.90;;;;;;;6.67;84.72;101736.88;10216473;29;20086;-70
2024/02/27 16:35:44;;;;;;;1999.90;999.90;;;;;;;6.21;88.49;101740.63;10216241;29;20086;-70
2024/02/27 16:40:46;;;;;;;1999.90;999.90;;;;;;;5.99;89.62;101745.50;10215384;29;20411;-70
2024/02/27 16:45:50;;;;;;;1999.90;999.90;;;;;;;5.57;92.29;101749.81;10215232;29;20136;-70
2024/02/27 16:50:52;;;;;;;1999.90;999.90;;;;;;;5.33;93.82;101747.72;10215865;29;20079;-70
2024/02/27 16:55:55;;;;;;;1999.90;999.90;;;;;;;5.23;94.06;101747.06;10214940;29;20060;-70
2024/02/27 17:00:58;;;;;;;1999.90;999.90;;;;;;;5.10;93.10;101746.44;10213783;29;20083;-70
2024/02/27 17:06:03;;;;;;;1999.90;999.90;;;;;;;4.81;94.26;101763.41;10214746;29;20073;-70
2024/02/27 17:11:09;;;;;;;1999.90;999.90;;;;;;;4.73;93.75;101767.88;10214583;29;20127;-70
2024/02/27 17:16:11;;;;;;;1999.90;999.90;;;;;;;4.57;96.34;101767.31;10215046;29;20131;-70
2024/02/27 17:21:14;;;;;;;1999.90;999.90;;;;;;;4.14;96.72;101767.13;10214268;29;20411;-70
2024/02/27 17:26:17;;;;;;;1999.90;999.90;;;;;;;4.15;98.81;101774.00;10213972;29;20044;-70
2024/02/27 17:31:19;;;;;;;1999.90;999.90;;;;;;;3.89;99.50;101781.28;10214034;29;20502;-70
2024/02/27 17:36:22;;;;;;;1999.90;999.90;;;;;;;3.79;98.40;101784.03;10212733;29;20403;-70
2024/02/27 17:41:24;;;;;;;1999.90;999.90;;;;;;;3.64;99.54;101790.25;10197724;29;20062;-70
2024/02/27 17:46:27;;;;;;;1999.90;999.90;;;;;;;3.42;97.64;101795.69;10214781;29;20122;-70
2024/02/27 17:51:29;;;;;;;1999.90;999.90;;;;;;;3.24;98.78;101798.47;10214199;29;20062;-70
2024/02/27 17:56:31;;;;;;;1999.90;999.90;;;;;;;3.15;100.00;101796.84;10213834;29;20056;-70
2024/02/27 18:01:34;;;;;;;1999.90;999.90;;;;;;;3.09;100.00;101815.91;10213569;29;20530;-70
2024/02/27 18:06:36;;;;;;;1999.90;999.90;;;;;;;3.16;100.00;101814.06;10214171;29;20063;-70
2024/02/27 18:11:39;;;;;;;1999.90;999.90;;;;;;;3.01;100.00;101809.06;10219885;29;20065;-70
2024/02/27 18:16:41;;;;;;;1999.90;999.90;;;;;;;2.95;100.00;101809.97;10220874;29;20059;-70
2024/02/27 18:21:44;;;;;;;1999.90;999.90;;;;;;;3.01;100.00;101816.81;10221337;29;20051;-70
2024/02/27 18:26:46;;;;;;;1999.90;999.90;;;;;;;3.01;100.00;101822.00;10221188;29;20075;-70
2024/02/27 18:31:48;;;;;;;1999.90;999.90;;;;;;;3.00;100.00;101823.72;10219820;29;20052;-70
2024/02/27 18:36:51;;;;;;;1999.90;999.90;;;;;;;2.95;100.00;101828.94;10203262;29;20402;-70
2024/02/27 18:41:53;;;;;;;1999.90;999.90;;;;;;;2.98;100.00;101835.84;10218788;29;20103;-70
2024/02/27 18:46:55;;;;;;;1999.90;999.90;;;;;;;2.97;100.00;101840.13;10220233;29;20547;-70
2024/02/27 18:51:58;;;;;;;1999.90;999.90;;;;;;;2.63;100.00;101839.56;10219601;29;20114;-70
2024/02/27 18:57:00;;;;;;;1999.90;999.90;;;;;;;2.66;100.00;101852.47;10218040;29;20056;-70
2024/02/27 19:02:03;;;;;;;1999.90;999.90;;;;;;;2.53;100.00;101858.59;10218549;29;20055;-70
2024/02/27 19:07:05;;;;;;;1999.90;999.90;;;;;;;2.60;100.00;101876.63;10218846;29;20176;-70
2024/02/27 19:12:08;;;;;;;1999.90;999.90;;;;;;;2.69;100.00;101885.19;10218280;29;20059;-70
2024/02/27 19:17:11;;;;;;;1999.90;999.90;;;;;;;2.65;100.00;101884.38;10218587;29;20487;-70
2024/02/27 19:22:13;;;;;;;1999.90;999.90;;;;;;;2.90;100.00;101886.78;10217622;29;20090;-70
2024/02/27 19:27:17;;;;;;;1999.90;999.90;;;;;;;3.03;100.00;101875.47;10217753;29;20043;-70
2024/02/27 19:32:19;;;;;;;1999.90;999.90;;;;;;;3.04;100.00;101879.75;10217524;29;20107;-70
2024/02/27 19:37:21;;;;;;;1999.90;999.90;;;;;;;3.27;100.00;101896.81;10217277;29;20079;-69
2024/02/27 19:42:24;;;;;;;1999.90;999.90;;;;;;;3.16;100.00;101896.88;10216407;29;20515;-70
2024/02/27 19:47:27;;;;;;;1999.90;999.90;;;;;;;3.41;100.00;101894.94;10218070;29;20058;-70
2024/02/27 19:52:29;;;;;;;1999.90;999.90;;;;;;;3.52;100.00;101902.59;10217936;29;20062;-70
2024/02/27 19:57:33;;;;;;;1999.90;999.90;;;;;;;3.46;100.00;101918.19;10217035;29;20501;-70
2024/02/27 20:02:36;;;;;;;1999.90;999.90;;;;;;;3.42;100.00;101919.09;10215530;29;20469;-70
2024/02/27 20:07:39;;;;;;;1999.90;999.90;;;;;;;3.26;100.00;101923.56;10217286;29;20054;-70
2024/02/27 20:12:42;;;;;;;1999.90;999.90;;;;;;;3.11;100.00;101929.72;10216222;29;20051;-70
2024/02/27 20:17:45;;;;;;;1999.90;999.90;;;;;;;2.92;100.00;101929.00;10216285;29;20484;-70
2024/02/27 20:22:48;;;;;;;1999.90;999.90;;;;;;;3.19;100.00;101922.75;10216189;29;20518;-70
2024/02/27 20:27:50;;;;;;;1999.90;999.90;;;;;;;3.14;100.00;101920.22;10216594;29;20054;-70
2024/02/27 20:32:53;;;;;;;1999.90;999.90;;;;;;;3.16;100.00;101922.78;10215751;29;20109;-70
2024/02/27 20:37:55;;;;;;;1999.90;999.90;;;;;;;2.81;100.00;101907.53;10215550;29;20449;-70
2024/02/27 20:42:58;;;;;;;1999.90;999.90;;;;;;;2.98;100.00;101919.47;10216071;29;20131;-70
2024/02/27 20:48:00;;;;;;;1999.90;999.90;;;;;;;3.09;100.00;101915.94;10214129;29;20506;-70
2024/02/27 20:53:03;;;;;;;1999.90;999.90;;;;;;;2.73;100.00;101923.13;10215399;29;20056;-70
2024/02/27 20:58:07;;;;;;;1999.90;999.90;;;;;;;2.62;100.00;101923.16;10213724;29;20123;-70
2024/02/27 21:03:09;;;;;;;1999.90;999.90;;;;;;;2.70;100.00;101917.97;10215451;29;20094;-69
2024/02/27 21:08:11;;;;;;;1999.90;999.90;;;;;;;2.55;100.00;101927.50;10222512;23;20058;-68
2024/02/27 21:13:15;;;;;;;1999.90;999.90;;;;;;;2.47;100.00;101928.44;10215229;29;20047;-68
2024/02/27 21:18:17;;;;;;;1999.90;999.90;;;;;;;2.38;100.00;101925.03;10214091;29;20048;-67
2024/02/27 21:23:20;;;;;;;1999.90;999.90;;;;;;;2.59;100.00;101918.88;10212953;29;20495;-68
2024/02/27 21:28:22;;;;;;;1999.90;999.90;;;;;;;2.21;100.00;101929.44;10212850;29;20388;-68
2024/02/27 21:33:24;;;;;;;1999.90;999.90;;;;;;;2.46;100.00;101939.66;10214517;29;20052;-68
2024/02/27 21:38:27;;;;;;;1999.90;999.90;;;;;;;2.54;100.00;101933.56;10213764;29;20488;-68
2024/02/27 21:43:29;;;;;;;1999.90;999.90;;;;;;;2.41;100.00;101931.91;10213916;29;20056;-68
2024/02/27 21:48:32;;;;;;;1999.90;999.90;;;;;;;2.72;100.00;101936.91;10221549;29;20047;-68
2024/02/27 21:53:34;;;;;;;1999.90;999.90;;;;;;;2.78;100.00;101952.41;10222722;29;20083;-68